Time;durP1;ratioP1;P1;durP2;ratioP2;P2;SDS_P1;SDS_P2;PMS_P1;PMS_P2;Temp;Humidity;BMP_temperature;BMP_pressure;BME280_temperature;BME280_humidity;BME280_pressure;Samples;Min_cycle;Max_cycle;Signal;HPM_P1;HPM_P2
2021/07/23 00:00:39;;;;;;;3.00;2.70;;;17.30;75.80;;;;;;5072308;28;20021;-69
2021/07/23 00:03:05;;;;;;;5.05;2.22;;;17.20;76.00;;;;;;5073245;28;20073;-70
2021/07/23 00:05:31;;;;;;;3.95;3.03;;;17.20;76.30;;;;;;5076229;28;20043;-69
2021/07/23 00:07:57;;;;;;;2.80;2.33;;;17.20;76.40;;;;;;5073027;28;20021;-69
2021/07/23 00:10:23;;;;;;;3.60;2.20;;;17.20;76.50;;;;;;5076609;28;20035;-69
2021/07/23 00:12:48;;;;;;;4.68;2.45;;;17.20;76.50;;;;;;5074269;28;20016;-69
2021/07/23 00:15:14;;;;;;;3.28;2.28;;;17.10;76.50;;;;;;5074569;28;20047;-69
2021/07/23 00:17:39;;;;;;;4.38;2.80;;;17.10;76.60;;;;;;5073377;28;20021;-69
2021/07/23 00:20:06;;;;;;;3.55;2.78;;;17.10;76.60;;;;;;5071628;28;20389;-70
2021/07/23 00:22:31;;;;;;;3.55;2.72;;;17.00;76.90;;;;;;5073754;28;20070;-69
2021/07/23 00:24:57;;;;;;;4.28;2.95;;;16.90;77.10;;;;;;5074748;28;20485;-70
2021/07/23 00:27:22;;;;;;;3.53;2.72;;;16.90;77.30;;;;;;5076863;28;20024;-69
2021/07/23 00:29:48;;;;;;;3.03;2.42;;;16.80;77.50;;;;;;5078309;28;20019;-69
2021/07/23 00:32:13;;;;;;;2.97;2.53;;;16.80;77.70;;;;;;5073017;28;20051;-69
2021/07/23 00:34:39;;;;;;;2.88;2.47;;;16.70;77.90;;;;;;5073241;28;20027;-69
2021/07/23 00:37:04;;;;;;;2.67;2.30;;;16.70;78.00;;;;;;5072383;28;20465;-69
2021/07/23 00:39:30;;;;;;;3.08;2.70;;;16.60;78.20;;;;;;5074359;28;20037;-69
2021/07/23 00:41:55;;;;;;;3.70;2.53;;;16.60;78.30;;;;;;5073840;28;20106;-69
2021/07/23 00:44:21;;;;;;;2.90;2.28;;;16.60;78.40;;;;;;5072915;28;20016;-69
2021/07/23 00:46:46;;;;;;;3.00;2.33;;;16.50;78.50;;;;;;5072735;28;20024;-69
2021/07/23 00:49:12;;;;;;;3.03;2.30;;;16.60;78.60;;;;;;5075006;28;20108;-69
2021/07/23 00:51:38;;;;;;;2.72;2.00;;;16.50;78.60;;;;;;5076562;28;20485;-69
2021/07/23 00:54:05;;;;;;;3.00;2.17;;;16.50;78.80;;;;;;5073938;28;20103;-69
2021/07/23 00:56:31;;;;;;;2.78;2.10;;;16.50;78.80;;;;;;5074027;28;20132;-70
2021/07/23 00:58:59;;;;;;;2.95;2.20;;;16.50;78.90;;;;;;5073550;28;20024;-69
2021/07/23 01:01:25;;;;;;;4.07;2.47;;;16.40;79.00;;;;;;5072622;28;20017;-69
2021/07/23 01:03:51;;;;;;;2.90;2.13;;;16.40;79.20;;;;;;5072523;28;20107;-70
2021/07/23 01:06:16;;;;;;;2.70;2.15;;;16.40;79.40;;;;;;5076339;28;20107;-69
2021/07/23 01:08:42;;;;;;;2.25;2.05;;;16.30;79.40;;;;;;5076447;28;20020;-69
2021/07/23 01:11:08;;;;;;;3.45;2.50;;;16.20;79.60;;;;;;5073231;28;20025;-70
2021/07/23 01:13:34;;;;;;;3.65;2.20;;;16.20;79.80;;;;;;5074225;28;20512;-70
2021/07/23 01:16:01;;;;;;;2.50;2.28;;;16.20;80.00;;;;;;5072773;28;20021;-70
2021/07/23 01:18:27;;;;;;;3.60;2.30;;;16.10;80.20;;;;;;5076818;28;20012;-70
2021/07/23 01:20:53;;;;;;;3.45;2.50;;;16.10;80.40;;;;;;5071238;28;20051;-70
2021/07/23 01:23:34;;;;;;;2.88;2.17;;;16.00;80.50;;;;;;5074458;28;20025;-70
2021/07/23 01:26:00;;;;;;;3.10;2.80;;;16.00;80.70;;;;;;5076204;28;20025;-70
2021/07/23 01:28:28;;;;;;;4.95;2.40;;;15.90;80.80;;;;;;5072322;28;20016;-70
2021/07/23 01:30:54;;;;;;;3.05;2.28;;;15.80;80.90;;;;;;5073368;28;20053;-70
2021/07/23 01:33:19;;;;;;;2.45;1.88;;;15.80;81.00;;;;;;5071148;28;20103;-70
2021/07/23 01:35:46;;;;;;;2.63;1.90;;;15.80;81.00;;;;;;5072862;28;20025;-70
2021/07/23 01:38:16;;;;;;;2.50;2.15;;;15.80;81.20;;;;;;5075854;28;20103;-70
2021/07/23 01:40:43;;;;;;;2.78;2.05;;;15.70;81.20;;;;;;5071512;28;20033;-70
2021/07/23 01:43:10;;;;;;;2.75;2.25;;;15.70;81.40;;;;;;5072177;28;20012;-70
2021/07/23 01:45:35;;;;;;;3.55;2.50;;;15.60;81.50;;;;;;5071023;28;20065;-70
2021/07/23 01:48:01;;;;;;;3.42;2.17;;;15.60;81.60;;;;;;5071541;28;20012;-70
2021/07/23 01:50:26;;;;;;;2.35;1.92;;;15.50;81.70;;;;;;5076865;28;20024;-70
2021/07/23 01:52:52;;;;;;;3.67;2.55;;;15.50;81.90;;;;;;5073685;28;20527;-70
2021/07/23 01:55:17;;;;;;;3.65;2.60;;;15.50;82.00;;;;;;5074872;28;20146;-70
2021/07/23 01:57:43;;;;;;;2.65;2.28;;;15.40;82.10;;;;;;5075605;28;20485;-70
2021/07/23 02:00:09;;;;;;;2.83;2.47;;;15.40;82.20;;;;;;5090219;28;20512;-69
2021/07/23 02:02:34;;;;;;;2.70;2.13;;;15.40;82.20;;;;;;5076064;28;20021;-70
2021/07/23 02:05:00;;;;;;;2.67;2.25;;;15.30;82.30;;;;;;5071932;28;20488;-70
2021/07/23 02:07:27;;;;;;;4.68;2.58;;;15.30;82.40;;;;;;5073684;28;20069;-70
2021/07/23 02:09:53;;;;;;;3.05;2.33;;;15.30;82.60;;;;;;5073582;28;20540;-70
2021/07/23 02:12:18;;;;;;;3.50;2.80;;;15.20;82.70;;;;;;5074743;28;20056;-70
2021/07/23 02:14:44;;;;;;;3.65;2.40;;;15.10;82.90;;;;;;5072612;28;20088;-70
2021/07/23 02:17:09;;;;;;;3.20;2.33;;;15.10;83.10;;;;;;5071654;28;20034;-70
2021/07/23 02:19:35;;;;;;;5.30;2.67;;;15.00;83.20;;;;;;5071852;28;20501;-70
2021/07/23 02:22:00;;;;;;;3.42;2.28;;;15.00;83.40;;;;;;5070046;28;20027;-70
2021/07/23 02:24:26;;;;;;;2.63;2.20;;;14.90;83.60;;;;;;5073598;28;20077;-70
2021/07/23 02:26:53;;;;;;;3.08;2.20;;;14.90;83.70;;;;;;5072058;28;20025;-70
2021/07/23 02:29:19;;;;;;;3.13;2.50;;;14.90;83.80;;;;;;5074701;28;20386;-70
2021/07/23 02:31:44;;;;;;;3.25;2.70;;;14.90;83.90;;;;;;5073029;28;20027;-70
2021/07/23 02:34:10;;;;;;;4.07;2.53;;;14.80;83.90;;;;;;5075881;28;20028;-70
2021/07/23 02:36:35;;;;;;;3.38;2.42;;;14.80;84.10;;;;;;5075050;28;20490;-70
2021/07/23 02:39:01;;;;;;;4.05;2.63;;;14.80;84.80;;;;;;5076397;28;20082;-70
2021/07/23 02:41:26;;;;;;;4.13;2.70;;;14.70;84.30;;;;;;5078630;28;20072;-70
2021/07/23 02:43:52;;;;;;;3.78;2.95;;;14.70;84.40;;;;;;5075415;28;20021;-70
2021/07/23 02:46:17;;;;;;;3.20;2.63;;;14.70;84.70;;;;;;5073844;28;20024;-70
2021/07/23 02:48:43;;;;;;;3.70;2.35;;;14.60;84.90;;;;;;5073204;28;20103;-69
2021/07/23 02:51:10;;;;;;;3.30;2.75;;;14.60;85.10;;;;;;5076962;28;20435;-70
2021/07/23 02:53:35;;;;;;;3.85;2.53;;;14.60;85.20;;;;;;5077232;28;20020;-70
2021/07/23 02:56:01;;;;;;;2.70;2.25;;;14.60;85.20;;;;;;5075823;28;20367;-70
2021/07/23 02:58:26;;;;;;;4.03;3.08;;;14.50;85.20;;;;;;5075624;28;20036;-70
2021/07/23 03:00:52;;;;;;;3.22;2.63;;;14.50;85.30;;;;;;5073706;28;20025;-70
2021/07/23 03:03:17;;;;;;;3.60;2.85;;;14.50;85.40;;;;;;5073660;28;20021;-69
2021/07/23 03:05:43;;;;;;;4.20;2.78;;;14.50;85.60;;;;;;5072863;28;20020;-70
2021/07/23 03:08:09;;;;;;;3.30;2.30;;;14.50;85.70;;;;;;5078908;28;20025;-70
2021/07/23 03:10:34;;;;;;;3.85;2.70;;;14.40;85.80;;;;;;5077148;28;20028;-69
2021/07/23 03:13:00;;;;;;;3.78;2.60;;;14.40;85.90;;;;;;5075446;28;20394;-70
2021/07/23 03:15:26;;;;;;;3.97;2.30;;;14.40;86.00;;;;;;5075148;28;20070;-70
2021/07/23 03:17:51;;;;;;;4.70;2.85;;;14.30;86.20;;;;;;5074718;28;20066;-70
2021/07/23 03:20:17;;;;;;;3.28;2.42;;;14.30;86.30;;;;;;5074816;28;20036;-70
2021/07/23 03:22:42;;;;;;;3.50;2.45;;;14.30;86.40;;;;;;5075171;28;20023;-70
2021/07/23 03:25:09;;;;;;;6.10;3.20;;;14.30;86.60;;;;;;5074933;28;20108;-70
2021/07/23 03:27:35;;;;;;;4.05;3.03;;;14.20;86.60;;;;;;5078022;28;20543;-70
2021/07/23 03:30:00;;;;;;;5.82;3.00;;;14.20;86.80;;;;;;5075248;28;20025;-70
2021/07/23 03:32:26;;;;;;;3.60;2.80;;;14.10;86.90;;;;;;5074861;28;20017;-70
2021/07/23 03:34:51;;;;;;;3.13;2.58;;;14.10;87.00;;;;;;5074587;28;20081;-69
2021/07/23 03:37:17;;;;;;;4.65;2.75;;;14.10;87.20;;;;;;5075378;28;20527;-70
2021/07/23 03:39:42;;;;;;;5.18;2.60;;;14.00;87.30;;;;;;5076896;28;20107;-70
2021/07/23 03:42:08;;;;;;;4.22;2.80;;;14.00;88.10;;;;;;5073789;28;20402;-70
2021/07/23 03:44:33;;;;;;;3.88;3.08;;;14.00;87.60;;;;;;5072598;28;20024;-70
2021/07/23 03:46:59;;;;;;;3.90;3.20;;;14.00;87.90;;;;;;5076764;28;20024;-70
2021/07/23 03:49:24;;;;;;;3.25;2.75;;;14.00;88.00;;;;;;5072220;28;20095;-70
2021/07/23 03:51:50;;;;;;;3.97;2.85;;;14.00;88.00;;;;;;5077005;28;20469;-69
2021/07/23 03:54:15;;;;;;;4.18;3.30;;;14.00;88.10;;;;;;5075161;28;20024;-70
2021/07/23 03:56:41;;;;;;;3.90;3.03;;;14.00;88.20;;;;;;5076389;28;20021;-69
2021/07/23 03:59:06;;;;;;;3.83;2.97;;;14.00;88.20;;;;;;5074215;28;20117;-69
2021/07/23 04:01:32;;;;;;;3.95;2.83;;;14.00;88.30;;;;;;5073988;28;20020;-70
2021/07/23 04:03:58;;;;;;;3.47;2.50;;;13.90;88.30;;;;;;5088220;28;20024;-70
2021/07/23 04:06:23;;;;;;;4.03;2.83;;;13.90;88.40;;;;;;5072161;28;20016;-70
2021/07/23 04:08:49;;;;;;;5.95;2.80;;;13.90;88.50;;;;;;5079844;28;20020;-70
2021/07/23 04:11:25;;;;;;;3.65;2.70;;;13.90;88.60;;;;;;5074873;28;20473;-70
2021/07/23 04:13:51;;;;;;;4.65;3.28;;;13.90;88.70;;;;;;5074797;28;20427;-70
2021/07/23 04:16:16;;;;;;;3.65;2.95;;;13.90;88.80;;;;;;5074179;28;20024;-70
2021/07/23 04:18:42;;;;;;;4.40;2.75;;;13.90;89.00;;;;;;5073125;28;20025;-70
2021/07/23 04:21:07;;;;;;;3.15;2.78;;;13.90;89.10;;;;;;5073012;28;20037;-70
2021/07/23 04:23:33;;;;;;;3.67;2.90;;;13.90;89.20;;;;;;5072796;28;20034;-70
2021/07/23 04:25:58;;;;;;;5.53;3.00;;;13.90;89.20;;;;;;5075795;28;20070;-69
2021/07/23 04:28:24;;;;;;;3.70;2.90;;;13.90;89.30;;;;;;5074529;28;20086;-69
2021/07/23 04:30:49;;;;;;;4.60;3.10;;;13.90;89.50;;;;;;5075960;28;20099;-70
2021/07/23 04:33:15;;;;;;;3.90;2.78;;;13.90;89.50;;;;;;5073671;28;20016;-70
2021/07/23 04:35:41;;;;;;;4.60;3.38;;;13.90;89.60;;;;;;5073989;28;20021;-69
2021/07/23 04:38:26;;;;;;;7.13;3.22;;;13.90;89.70;;;;;;5074021;28;20031;-70
2021/07/23 04:40:52;;;;;;;4.20;2.85;;;13.90;89.80;;;;;;5073807;28;20032;-70
2021/07/23 04:43:17;;;;;;;3.90;3.28;;;13.90;90.00;;;;;;5074630;28;20031;-70
2021/07/23 04:45:43;;;;;;;3.65;2.97;;;13.90;90.00;;;;;;5073105;28;20025;-70
2021/07/23 04:48:08;;;;;;;3.60;2.92;;;13.90;90.10;;;;;;5072866;28;20465;-69
2021/07/23 04:50:34;;;;;;;5.43;3.80;;;13.90;90.10;;;;;;5072191;28;20488;-70
2021/07/23 04:52:59;;;;;;;4.50;3.20;;;13.90;90.20;;;;;;5074506;28;20390;-70
2021/07/23 04:55:25;;;;;;;5.18;3.78;;;14.00;90.20;;;;;;5078597;28;20020;-70
2021/07/23 04:57:51;;;;;;;4.50;3.67;;;14.00;90.30;;;;;;5073462;28;20023;-69
2021/07/23 05:00:16;;;;;;;4.60;3.00;;;14.00;90.30;;;;;;5074552;28;20034;-69
2021/07/23 05:02:42;;;;;;;3.92;3.15;;;14.00;90.30;;;;;;5072592;28;20521;-69
2021/07/23 05:05:14;;;;;;;5.05;3.28;;;14.10;90.40;;;;;;5072665;28;20020;-70
2021/07/23 05:07:40;;;;;;;5.32;3.63;;;14.10;90.50;;;;;;5074187;28;20044;-69
2021/07/23 05:10:07;;;;;;;4.00;3.25;;;14.10;90.50;;;;;;5074760;28;20062;-69
2021/07/23 05:12:32;;;;;;;5.63;3.85;;;14.10;90.60;;;;;;5077509;28;20024;-69
2021/07/23 05:14:58;;;;;;;4.25;3.72;;;14.10;90.70;;;;;;5073720;28;20696;-69
2021/07/23 05:17:24;;;;;;;4.22;3.55;;;14.20;90.70;;;;;;5072904;28;20029;-69
2021/07/23 05:19:50;;;;;;;4.55;3.53;;;14.20;90.80;;;;;;5073094;28;20070;-69
2021/07/23 05:22:16;;;;;;;4.18;3.15;;;14.20;90.80;;;;;;5071346;28;20481;-70
2021/07/23 05:24:42;;;;;;;5.05;4.07;;;14.30;90.80;;;;;;5071553;28;20035;-69
2021/07/23 05:27:11;;;;;;;6.65;3.78;;;14.30;90.90;;;;;;5077472;28;20017;-69
2021/07/23 05:29:36;;;;;;;5.03;3.87;;;14.40;91.00;;;;;;5075555;28;20078;-70
2021/07/23 05:32:02;;;;;;;5.10;3.83;;;14.40;91.00;;;;;;5071943;28;20427;-70
2021/07/23 05:34:28;;;;;;;4.60;3.45;;;14.40;91.00;;;;;;5074191;28;20104;-70
2021/07/23 05:36:56;;;;;;;5.13;3.85;;;14.40;91.10;;;;;;5072309;28;20024;-69
2021/07/23 05:39:21;;;;;;;6.93;3.53;;;14.40;91.10;;;;;;5073406;28;20470;-70
2021/07/23 05:41:47;;;;;;;5.40;3.70;;;14.50;91.20;;;;;;5074340;28;20060;-70
2021/07/23 05:44:12;;;;;;;4.97;3.33;;;14.50;91.30;;;;;;5071380;28;20119;-70
2021/07/23 05:46:39;;;;;;;4.97;4.05;;;14.50;91.20;;;;;;5072857;28;20543;-70
2021/07/23 05:49:05;;;;;;;11.35;4.60;;;14.60;91.30;;;;;;5071922;28;20027;-70
2021/07/23 05:51:31;;;;;;;6.78;4.20;;;14.60;91.30;;;;;;5073101;28;20016;-70
2021/07/23 05:53:57;;;;;;;5.68;3.83;;;14.70;91.40;;;;;;5074624;28;20020;-70
2021/07/23 05:56:22;;;;;;;8.20;4.13;;;14.70;91.40;;;;;;5073398;28;20486;-70
2021/07/23 05:58:48;;;;;;;5.32;3.88;;;14.70;91.70;;;;;;5074317;28;20038;-70
2021/07/23 06:01:14;;;;;;;6.88;4.47;;;14.80;91.50;;;;;;5074132;28;20082;-70
2021/07/23 06:03:40;;;;;;;6.85;4.05;;;14.80;91.90;;;;;;5071462;28;20039;-69
2021/07/23 06:06:05;;;;;;;5.35;4.25;;;14.80;91.60;;;;;;5072348;28;20013;-69
2021/07/23 06:08:31;;;;;;;6.50;4.57;;;14.90;91.70;;;;;;5079121;28;20085;-69
2021/07/23 06:11:02;;;;;;;6.47;4.38;;;14.90;91.80;;;;;;5076465;28;20032;-69
2021/07/23 06:13:28;;;;;;;6.57;4.45;;;15.00;91.90;;;;;;5077071;28;20500;-69
2021/07/23 06:15:53;;;;;;;8.13;4.30;;;15.00;92.00;;;;;;5077945;28;20028;-69
2021/07/23 06:18:19;;;;;;;6.22;4.85;;;15.10;92.00;;;;;;5074663;28;20158;-69
2021/07/23 06:20:44;;;;;;;7.00;5.45;;;15.10;92.00;;;;;;5076419;28;20497;-69
2021/07/23 06:23:10;;;;;;;5.95;4.13;;;15.20;92.20;;;;;;5074001;28;20017;-68
2021/07/23 06:25:35;;;;;;;5.68;4.07;;;15.20;92.20;;;;;;5075731;28;20074;-69
2021/07/23 06:28:01;;;;;;;5.82;4.20;;;15.30;92.20;;;;;;5065930;28;20028;-67
2021/07/23 06:30:29;;;;;;;6.57;4.38;;;15.30;92.20;;;;;;5078184;28;20029;-70
2021/07/23 06:32:55;;;;;;;5.65;4.60;;;15.40;92.30;;;;;;5076810;28;20028;-69
2021/07/23 06:35:20;;;;;;;4.88;3.67;;;15.40;92.30;;;;;;5083792;28;20024;-69
2021/07/23 06:37:46;;;;;;;6.80;4.47;;;15.50;92.30;;;;;;5072772;28;20408;-69
2021/07/23 06:40:38;;;;;;;4.72;4.28;;;15.50;92.30;;;;;;5074255;28;20033;-68
2021/07/23 06:43:03;;;;;;;4.45;3.85;;;15.60;92.30;;;;;;5081074;28;20409;-69
2021/07/23 06:45:29;;;;;;;4.35;3.72;;;15.60;92.30;;;;;;5084074;28;20484;-68
2021/07/23 06:47:54;;;;;;;5.32;3.88;;;15.70;92.30;;;;;;5086840;28;20013;-68
2021/07/23 06:50:20;;;;;;;5.70;3.95;;;15.80;92.30;;;;;;5073328;28;20017;-68
2021/07/23 06:52:53;;;;;;;6.65;4.25;;;15.80;92.30;;;;;;5085787;28;20537;-69
2021/07/23 06:55:18;;;;;;;5.35;3.75;;;15.90;92.30;;;;;;5093543;28;20031;-69
2021/07/23 06:58:09;;;;;;;7.95;3.92;;;16.00;92.40;;;;;;5094869;28;20537;-69
2021/07/23 07:00:35;;;;;;;5.18;3.47;;;16.10;92.20;;;;;;5087212;28;20047;-68
2021/07/23 07:03:01;;;;;;;4.43;3.08;;;16.10;92.30;;;;;;5095144;28;20020;-68
2021/07/23 07:05:27;;;;;;;4.15;2.92;;;16.20;92.20;;;;;;5094876;28;20016;-68
2021/07/23 07:07:53;;;;;;;3.72;2.45;;;16.30;92.20;;;;;;5091970;28;20024;-68
2021/07/23 07:10:18;;;;;;;4.65;3.20;;;16.30;92.00;;;;;;5094371;28;20028;-68
2021/07/23 07:12:44;;;;;;;4.95;3.10;;;16.40;92.00;;;;;;5094917;28;20455;-68
2021/07/23 07:15:10;;;;;;;5.43;3.60;;;16.50;92.00;;;;;;5094727;28;20051;-68
2021/07/23 07:17:35;;;;;;;6.00;4.10;;;16.60;91.90;;;;;;5094507;28;20020;-69
2021/07/23 07:20:00;;;;;;;6.65;3.60;;;16.70;91.90;;;;;;5094732;28;20527;-68
2021/07/23 07:22:27;;;;;;;4.85;3.70;;;16.70;91.80;;;;;;5090903;28;20104;-67
2021/07/23 07:24:53;;;;;;;4.45;3.45;;;16.80;91.70;;;;;;5076978;28;20025;-68
2021/07/23 07:27:19;;;;;;;5.88;3.22;;;16.90;91.60;;;;;;5094510;28;20016;-68
2021/07/23 07:29:45;;;;;;;5.10;3.38;;;17.00;91.50;;;;;;5094005;28;20056;-68
2021/07/23 07:32:11;;;;;;;5.43;3.78;;;17.00;91.40;;;;;;5089678;28;20068;-68
2021/07/23 07:37:38;;;;;;;5.07;4.43;;;17.30;91.00;;;;;;5074521;28;20039;-69
2021/07/23 07:40:05;;;;;;;5.80;3.65;;;17.30;90.80;;;;;;5073582;28;20024;-68
2021/07/23 07:42:31;;;;;;;5.38;3.53;;;17.40;90.70;;;;;;5073136;28;20044;-68
2021/07/23 07:44:58;;;;;;;6.03;3.38;;;17.50;90.60;;;;;;5073489;28;20390;-68
2021/07/23 07:47:23;;;;;;;4.03;3.35;;;17.60;90.40;;;;;;5073379;28;20027;-68
2021/07/23 07:50:03;;;;;;;4.20;3.50;;;17.70;90.20;;;;;;5072027;28;20027;-69
2021/07/23 07:52:28;;;;;;;;;;;17.80;90.10;;;;;;5072787;28;20024;-69
2021/07/23 07:54:57;;;;;;;4.68;3.08;;;17.90;90.00;;;;;;5073367;28;19908;-68
2021/07/23 07:57:23;;;;;;;4.50;3.10;;;18.00;90.00;;;;;;5073572;28;20078;-68
2021/07/23 07:59:49;;;;;;;4.25;3.10;;;18.10;89.60;;;;;;5078769;28;20032;-69
2021/07/23 08:02:14;;;;;;;4.32;3.92;;;18.30;88.90;;;;;;5081151;28;20024;-68
2021/07/23 08:05:03;;;;;;;5.43;3.28;;;18.40;88.20;;;;;;5085271;28;20494;-68
2021/07/23 08:07:31;;;;;;;3.90;3.03;;;18.50;87.50;;;;;;5084863;28;20063;-69
2021/07/23 08:13:23;;;;;;;4.47;2.90;;;18.80;86.70;;;;;;5092274;28;20035;-69
2021/07/23 08:15:48;;;;;;;5.88;3.55;;;18.80;85.60;;;;;;5074674;28;20108;-69
2021/07/23 08:18:24;;;;;;;3.92;2.80;;;18.80;85.10;;;;;;5093387;28;20071;-69
2021/07/23 08:20:51;;;;;;;4.30;3.33;;;19.00;84.80;;;;;;5075867;28;20416;-69
2021/07/23 08:23:28;;;;;;;6.32;3.53;;;19.10;84.40;;;;;;5089779;28;20023;-69
2021/07/23 08:25:53;;;;;;;4.40;3.58;;;19.10;83.90;;;;;;5089414;28;20024;-69
2021/07/23 08:28:36;;;;;;;5.25;3.33;;;19.20;83.70;;;;;;5072283;28;20099;-69
2021/07/23 08:31:11;;;;;;;4.07;3.15;;;19.30;83.30;;;;;;5072533;28;20065;-69
2021/07/23 08:33:36;;;;;;;4.05;3.00;;;19.40;82.90;;;;;;5072674;28;20060;-69
2021/07/23 08:36:06;;;;;;;3.75;2.45;;;19.40;82.70;;;;;;5071320;28;20059;-69
2021/07/23 08:38:31;;;;;;;;;;;19.50;82.50;;;;;;5073099;28;20028;-69
2021/07/23 08:40:57;;;;;;;3.10;2.40;;;19.60;82.70;;;;;;5085087;28;20270;-69
2021/07/23 08:43:22;;;;;;;3.38;2.88;;;19.70;82.30;;;;;;5091888;28;20032;-69
2021/07/23 08:45:55;;;;;;;4.13;2.53;;;19.80;81.70;;;;;;5074773;28;20020;-69
2021/07/23 08:51:39;;;;;;;3.88;2.80;;;20.00;80.90;;;;;;5066034;28;20028;-69
2021/07/23 08:54:05;;;;;;;4.22;3.30;;;20.10;80.60;;;;;;5072367;28;20047;-69
2021/07/23 09:03:09;;;;;;;3.55;2.47;;;20.50;80.40;;;;;;5009677;28;20041;-69
2021/07/23 09:05:37;;;;;;;3.15;2.50;;;20.60;80.40;;;;;;5034817;28;20036;-69
2021/07/23 09:08:17;;;;;;;3.05;2.38;;;20.80;79.80;;;;;;5072886;28;21445;-69
2021/07/23 09:10:44;;;;;;;;;;;21.00;78.80;;;;;;5072616;28;20028;-69
2021/07/23 09:13:10;;;;;;;3.42;2.92;;;21.10;78.50;;;;;;5072435;28;19909;-69
2021/07/23 09:20:49;;;;;;;;;;;;;;;;;;;;;
2021/07/23 09:26:48;;;;;;;3.13;2.20;;;21.60;76.40;;;;;;4886784;29;20119;-68
2021/07/23 09:29:14;;;;;;;3.42;2.55;;;21.70;76.10;;;;;;5068593;28;20040;-69
2021/07/23 09:31:40;;;;;;;2.85;2.40;;;21.90;75.30;;;;;;5087640;28;20020;-68
2021/07/23 09:34:07;;;;;;;4.00;2.40;;;22.00;74.80;;;;;;5091968;28;20477;-68
2021/07/23 09:36:33;;;;;;;3.65;2.45;;;22.10;74.60;;;;;;5090434;28;20032;-68
2021/07/23 09:39:01;;;;;;;5.28;2.70;;;22.20;74.50;;;;;;5090931;28;20147;-69
2021/07/23 09:41:28;;;;;;;3.30;2.80;;;22.40;73.40;;;;;;5094826;28;20050;-68
2021/07/23 09:44:25;;;;;;;;;;;;;;;;;;;;;
2021/07/23 09:50:02;;;;;;;3.00;2.63;;;22.50;73.10;;;;;;5084889;28;20030;-69
2021/07/23 09:52:28;;;;;;;3.00;2.45;;;22.50;73.30;;;;;;5095150;28;20030;-69
2021/07/23 09:55:26;;;;;;;3.70;2.65;;;22.60;73.20;;;;;;5096425;28;20035;-69
2021/07/23 09:57:52;;;;;;;4.30;2.60;;;22.70;72.80;;;;;;5095661;28;20070;-69
2021/07/23 10:00:22;;;;;;;5.53;2.80;;;22.80;72.40;;;;;;5094962;28;20028;-69
2021/07/23 10:02:50;;;;;;;2.83;2.20;;;22.90;72.10;;;;;;5070441;28;20901;-68
2021/07/23 10:05:23;;;;;;;3.63;2.85;;;22.90;71.70;;;;;;5083144;28;20111;-68
2021/07/23 10:07:58;;;;;;;3.97;2.60;;;23.00;71.30;;;;;;5090541;28;20521;-69
2021/07/23 10:10:24;;;;;;;3.20;2.42;;;23.00;71.90;;;;;;5092798;28;20036;-68
2021/07/23 10:12:53;;;;;;;4.10;2.83;;;23.00;71.20;;;;;;5095641;28;20051;-69
2021/07/23 10:15:19;;;;;;;3.58;2.70;;;23.10;70.90;;;;;;5093952;28;20035;-68
2021/07/23 10:17:56;;;;;;;4.55;3.25;;;23.30;70.60;;;;;;5094049;28;20020;-68
2021/07/23 10:20:22;;;;;;;4.07;2.90;;;23.40;69.50;;;;;;5095168;28;20074;-68
2021/07/23 10:22:51;;;;;;;3.80;2.72;;;23.30;69.20;;;;;;5094092;28;20036;-68
2021/07/23 10:25:17;;;;;;;3.13;2.33;;;23.30;69.40;;;;;;5094841;28;20027;-69
2021/07/23 10:27:56;;;;;;;3.97;2.42;;;23.40;69.50;;;;;;5093761;28;20020;-69
2021/07/23 10:30:40;;;;;;;3.60;2.83;;;23.50;69.30;;;;;;5091780;28;20071;-68
2021/07/23 10:33:06;;;;;;;3.35;2.63;;;23.50;68.60;;;;;;5088847;28;20457;-68
2021/07/23 10:35:33;;;;;;;3.97;2.83;;;23.50;68.40;;;;;;5094586;28;20091;-68
2021/07/23 10:38:22;;;;;;;;;;;;;;;;;;;;;
2021/07/23 10:40:48;;;;;;;4.00;2.60;;;23.60;68.90;;;;;;5094194;28;20376;-70
2021/07/23 10:47:59;;;;;;;2.45;2.10;;;24.00;67.50;;;;;;5013445;28;20029;-69
2021/07/23 10:50:27;;;;;;;2.63;2.00;;;24.20;67.00;;;;;;5011389;28;20138;-69
2021/07/23 10:52:53;;;;;;;3.03;2.10;;;24.20;66.50;;;;;;5094684;28;20016;-69
2021/07/23 10:55:24;;;;;;;2.75;2.38;;;24.30;66.20;;;;;;5086378;28;20036;-69
2021/07/23 10:58:05;;;;;;;3.75;2.10;;;24.30;65.90;;;;;;5076627;28;20119;-69
2021/07/23 11:01:02;;;;;;;2.50;2.05;;;24.40;65.90;;;;;;5094379;28;20092;-69
2021/07/23 11:03:59;;;;;;;;;;;;;;;;;;;;;
2021/07/23 11:06:28;;;;;;;2.90;1.85;;;24.70;65.80;;;;;;5093830;28;20121;-69
2021/07/23 11:09:02;;;;;;;2.90;1.90;;;24.90;65.40;;;;;;5091279;28;20062;-70
2021/07/23 11:11:28;;;;;;;2.35;2.08;;;25.00;64.90;;;;;;5092480;28;20465;-69
2021/07/23 11:13:54;;;;;;;2.38;1.83;;;25.10;64.60;;;;;;5092786;28;20024;-69
2021/07/23 11:17:11;;;;;;;4.68;2.38;;;25.10;64.00;;;;;;5080485;28;20029;-69
2021/07/23 11:19:36;;;;;;;3.10;2.05;;;25.30;63.80;;;;;;5074037;28;20572;-69
2021/07/23 11:22:02;;;;;;;2.55;1.98;;;25.30;63.40;;;;;;5072190;28;20107;-70
2021/07/23 11:24:35;;;;;;;3.13;2.10;;;25.40;63.30;;;;;;5076739;28;20099;-69
2021/07/23 11:27:00;;;;;;;3.78;2.25;;;25.50;63.20;;;;;;5073819;28;20103;-69
2021/07/23 11:29:41;;;;;;;3.15;2.08;;;25.60;63.30;;;;;;5073728;28;20561;-70
2021/07/23 11:38:17;;;;;;;2.85;2.17;;;25.70;62.40;;;;;;5056182;28;20119;-70
2021/07/23 11:40:43;;;;;;;4.27;2.30;;;25.70;62.20;;;;;;5075646;28;20028;-70
2021/07/23 11:43:18;;;;;;;4.55;2.20;;;25.70;62.80;;;;;;5073917;28;20062;-70
2021/07/23 11:45:46;;;;;;;2.50;2.30;;;25.90;62.40;;;;;;5078858;28;20035;-70
2021/07/23 11:48:13;;;;;;;4.07;2.50;;;25.90;62.20;;;;;;5078912;28;20039;-70
2021/07/23 11:51:09;;;;;;;3.20;2.75;;;25.90;61.90;;;;;;5072128;28;20102;-70
2021/07/23 11:54:06;;;;;;;2.65;1.98;;;26.00;61.60;;;;;;5074830;28;20059;-70
2021/07/23 11:56:33;;;;;;;4.00;2.97;;;26.10;61.70;;;;;;5069114;28;20033;-70
2021/07/23 11:58:59;;;;;;;3.13;2.50;;;26.00;60.70;;;;;;5073506;28;20367;-70
2021/07/23 12:01:26;;;;;;;3.03;2.70;;;26.10;61.10;;;;;;5073157;28;20016;-70
2021/07/23 12:03:55;;;;;;;3.50;2.75;;;26.10;60.30;;;;;;5073876;28;20115;-70
2021/07/23 12:06:29;;;;;;;3.13;2.33;;;26.20;60.20;;;;;;5092389;28;20012;-71
2021/07/23 12:08:55;;;;;;;4.22;2.47;;;26.30;60.40;;;;;;5093540;28;20058;-71
2021/07/23 12:11:25;;;;;;;3.40;2.72;;;26.50;60.10;;;;;;5092374;28;20039;-70
2021/07/23 12:13:51;;;;;;;3.05;2.17;;;26.60;59.90;;;;;;5093937;28;20108;-70
2021/07/23 12:16:32;;;;;;;3.17;2.88;;;26.60;59.60;;;;;;5093775;28;20051;-71
2021/07/23 12:18:59;;;;;;;3.10;2.38;;;26.80;59.40;;;;;;5093641;28;20047;-70
2021/07/23 12:21:27;;;;;;;3.33;2.35;;;26.80;59.50;;;;;;5093147;28;20082;-71
2021/07/23 12:24:06;;;;;;;2.88;2.28;;;26.90;59.30;;;;;;5093564;28;20047;-71
2021/07/23 12:26:34;;;;;;;5.10;3.15;;;27.10;59.00;;;;;;5093853;28;20024;-70
2021/07/23 12:32:14;;;;;;;4.18;2.85;;;27.20;58.30;;;;;;5093249;28;20409;-71
2021/07/23 12:34:40;;;;;;;3.95;2.58;;;27.30;57.90;;;;;;5093491;28;20069;-71
2021/07/23 12:37:18;;;;;;;3.35;2.67;;;27.30;57.90;;;;;;5091721;28;20379;-71
2021/07/23 12:40:31;;;;;;;3.33;2.95;;;27.30;58.00;;;;;;5093487;28;20032;-71
2021/07/23 12:43:16;;;;;;;2.92;2.45;;;27.30;58.10;;;;;;5092490;28;20401;-70
2021/07/23 12:45:42;;;;;;;2.67;2.30;;;27.50;57.80;;;;;;5092044;28;20012;-70
2021/07/23 12:48:54;;;;;;;;;;;;;;;;;;;;;
2021/07/23 12:52:02;;;;;;;4.15;2.88;;;27.60;57.30;;;;;;5057794;28;20503;-70
2021/07/23 12:54:38;;;;;;;3.35;2.40;;;27.50;57.90;;;;;;5087641;28;20035;-71
2021/07/23 13:00:35;;;;;;;3.90;2.95;;;28.00;58.00;;;;;;5051148;28;20024;-70
2021/07/23 13:03:17;;;;;;;4.20;3.08;;;28.20;56.90;;;;;;5092721;28;20107;-71
2021/07/23 13:06:34;;;;;;;6.35;3.85;;;28.30;56.40;;;;;;5091722;28;20023;-70
2021/07/23 13:09:00;;;;;;;3.33;3.03;;;28.40;55.70;;;;;;5050872;28;20478;-71
2021/07/23 13:11:25;;;;;;;4.13;3.45;;;28.40;55.60;;;;;;5092691;28;20046;-70
2021/07/23 13:13:51;;;;;;;3.50;3.03;;;28.50;55.50;;;;;;5092825;28;20073;-71
2021/07/23 13:16:30;;;;;;;4.07;3.38;;;28.60;55.30;;;;;;5092626;28;20027;-70
2021/07/23 13:22:14;;;;;;;4.88;3.63;;;28.70;55.00;;;;;;5080738;28;20043;-70
2021/07/23 13:24:45;;;;;;;4.70;3.28;;;28.90;54.30;;;;;;5092683;28;20439;-70
2021/07/23 13:27:51;;;;;;;3.80;3.40;;;28.90;54.40;;;;;;5092520;28;20032;-70
2021/07/23 13:30:18;;;;;;;7.07;3.72;;;29.10;54.60;;;;;;5091922;28;20040;-70
2021/07/23 13:32:45;;;;;;;5.25;3.67;;;29.20;54.10;;;;;;5091240;28;20095;-71
2021/07/23 13:35:11;;;;;;;3.95;3.55;;;29.40;53.50;;;;;;5092482;28;20020;-71
2021/07/23 13:37:41;;;;;;;3.45;3.15;;;29.40;53.20;;;;;;5091241;28;20016;-71
2021/07/23 13:41:04;;;;;;;;;;;;;;;;;;;;;
2021/07/23 13:43:19;;;;;;;5.55;4.05;;;29.60;53.20;;;;;;5074945;28;20051;-71
2021/07/23 13:50:25;;;;;;;3.97;3.00;;;29.70;52.30;;;;;;5061388;28;20389;-70
2021/07/23 13:56:16;;;;;;;4.32;3.58;;;29.90;52.30;;;;;;5081870;28;20039;-71
2021/07/23 13:58:42;;;;;;;3.75;3.13;;;30.00;52.70;;;;;;5091101;28;20020;-71
2021/07/23 14:01:07;;;;;;;4.93;3.97;;;30.00;51.80;;;;;;5090790;28;20024;-71